createdAt,value
2023-05-10T00:00:10.664Z,15.93
2023-05-10T00:05:16.516Z,19.55
2023-05-10T00:10:19.348Z,11.27
2023-05-10T00:15:22.214Z,10.23
2023-05-10T00:20:24.978Z,11.88
2023-05-10T00:25:27.631Z,13.40
2023-05-10T00:30:30.408Z,15.00
2023-05-10T00:35:33.313Z,10.57
2023-05-10T00:40:38.069Z,11.35
2023-05-10T00:45:45.995Z,12.80
2023-05-10T00:50:49.090Z,12.23
2023-05-10T00:55:52.269Z,13.98
2023-05-10T01:00:58.230Z,11.00
2023-05-10T01:06:01.021Z,13.02
2023-05-10T01:11:04.026Z,19.40
2023-05-10T01:16:07.921Z,17.45
2023-05-10T01:21:28.927Z,12.73
2023-05-10T01:26:35.156Z,9.17
2023-05-10T01:31:58.852Z,12.05
2023-05-10T01:37:11.943Z,10.82
2023-05-10T01:42:29.985Z,10.52
2023-05-10T01:47:39.949Z,13.75
2023-05-10T01:52:45.865Z,15.93
2023-05-10T01:57:54.824Z,15.07
2023-05-10T02:02:58.480Z,11.30
2023-05-10T02:08:02.684Z,10.32
2023-05-10T02:13:08.475Z,9.55
2023-05-10T02:18:12.920Z,8.45
2023-05-10T02:23:18.492Z,9.02
2023-05-10T02:28:23.604Z,11.35
2023-05-10T02:33:28.143Z,11.55
2023-05-10T02:38:32.452Z,8.35
2023-05-10T02:43:36.712Z,8.15
2023-05-10T02:48:39.454Z,12.32
2023-05-10T02:53:44.910Z,11.68
2023-05-10T02:58:47.840Z,13.52
2023-05-10T03:03:50.655Z,15.93
2023-05-10T03:08:53.411Z,9.52
2023-05-10T03:14:11.126Z,8.60
2023-05-10T03:19:29.488Z,12.20
2023-05-10T03:24:35.384Z,10.45
2023-05-10T03:29:40.269Z,11.60
2023-05-10T03:34:46.825Z,8.10
2023-05-10T03:39:49.483Z,8.65
2023-05-10T03:44:52.301Z,12.43
2023-05-10T03:49:55.063Z,13.00
2023-05-10T03:54:58.740Z,9.23
2023-05-10T04:00:01.612Z,8.13
2023-05-10T04:05:09.281Z,17.70
2023-05-10T04:10:12.690Z,9.65
2023-05-10T04:15:15.481Z,11.18
2023-05-10T04:20:18.545Z,6.55
2023-05-10T04:25:21.340Z,12.93
2023-05-10T04:30:23.995Z,14.98
2023-05-10T04:35:27.300Z,10.85
2023-05-10T04:40:30.097Z,5.97
2023-05-10T04:45:32.769Z,7.55
2023-05-10T04:50:35.540Z,12.68
2023-05-10T04:55:38.279Z,12.15
2023-05-10T05:00:41.175Z,10.05
2023-05-10T05:05:45.036Z,8.95
2023-05-10T05:10:51.257Z,12.70
2023-05-10T05:15:54.605Z,10.52
2023-05-10T05:20:57.217Z,12.18
2023-05-10T05:26:00.162Z,19.00
2023-05-10T05:31:02.827Z,11.32
2023-05-10T05:36:07.025Z,11.27
2023-05-10T05:41:09.901Z,12.45
2023-05-10T05:46:12.589Z,13.85
2023-05-10T05:51:15.310Z,13.38
2023-05-10T05:56:25.058Z,17.40
2023-05-10T06:01:27.661Z,11.43
2023-05-10T06:06:30.469Z,8.75
2023-05-10T06:11:36.027Z,7.90
2023-05-10T06:16:38.718Z,8.13
2023-05-10T06:21:41.318Z,15.10
2023-05-10T06:26:44.233Z,13.20
2023-05-10T06:31:47.520Z,11.07
2023-05-10T06:36:50.177Z,7.65
2023-05-10T06:41:53.231Z,8.18
2023-05-10T06:46:56.895Z,10.05
2023-05-10T06:51:59.581Z,11.77
2023-05-10T06:57:05.790Z,6.88
2023-05-10T07:02:11.674Z,5.55
2023-05-10T07:07:15.559Z,7.05
2023-05-10T07:12:18.597Z,9.43
2023-05-10T07:17:21.718Z,10.52
2023-05-10T07:22:24.351Z,4.15
2023-05-10T07:27:27.072Z,8.48
2023-05-10T07:32:29.842Z,12.35
2023-05-10T07:37:32.630Z,5.18
2023-05-10T07:42:35.338Z,5.18
2023-05-10T07:47:37.991Z,5.47
2023-05-10T07:52:40.710Z,4.97
2023-05-10T07:57:43.751Z,9.05
2023-05-10T08:02:46.620Z,3.88
2023-05-10T08:07:49.482Z,2.95
2023-05-10T08:12:52.469Z,2.55
2023-05-10T08:17:55.662Z,4.47
2023-05-10T08:22:58.392Z,4.82
2023-05-10T08:28:01.099Z,3.92
2023-05-10T08:33:03.836Z,4.28
2023-05-10T08:38:06.546Z,4.65
2023-05-10T08:43:12.228Z,2.63
2023-05-10T08:48:15.927Z,7.72
2023-05-10T08:53:20.170Z,11.65
2023-05-10T08:58:23.037Z,3.85
2023-05-10T09:03:25.799Z,4.72
2023-05-10T09:08:28.804Z,14.23
2023-05-10T09:13:32.382Z,4.03
2023-05-10T09:18:35.064Z,2.20
2023-05-10T09:23:37.894Z,5.28
2023-05-10T09:29:01.123Z,2.78
2023-05-10T09:34:04.032Z,5.15
2023-05-10T09:39:06.760Z,4.22
2023-05-10T09:44:09.441Z,4.82
2023-05-10T09:49:15.910Z,4.40
2023-05-10T09:54:19.068Z,8.00
2023-05-10T09:59:21.729Z,2.92
2023-05-10T10:04:24.620Z,4.07
2023-05-10T10:09:27.982Z,5.97
2023-05-10T10:14:31.369Z,6.15
2023-05-10T10:19:38.070Z,13.07
2023-05-10T10:24:41.891Z,6.68
2023-05-10T10:30:14.916Z,4.07
2023-05-10T10:35:17.958Z,10.48
2023-05-10T10:40:29.039Z,5.22
2023-05-10T10:45:31.713Z,2.83
2023-05-10T10:50:45.494Z,6.63
2023-05-10T10:55:49.325Z,4.13
2023-05-10T11:01:11.426Z,6.25
2023-05-10T11:06:14.343Z,2.22
2023-05-10T11:11:17.075Z,5.72
2023-05-10T11:16:21.795Z,7.43
2023-05-10T11:21:24.914Z,8.68
2023-05-10T11:26:32.797Z,3.28
2023-05-10T11:31:36.476Z,3.55
2023-05-10T11:36:39.420Z,6.93
2023-05-10T11:41:43.464Z,3.50
2023-05-10T11:46:46.177Z,7.82
2023-05-10T11:51:49.110Z,3.90
2023-05-10T11:56:51.744Z,4.05
2023-05-10T12:01:54.594Z,3.90
2023-05-10T12:06:57.478Z,11.77
2023-05-10T12:12:00.120Z,3.30
2023-05-10T12:17:02.844Z,8.30
2023-05-10T12:22:08.429Z,5.78
2023-05-10T12:27:11.232Z,9.82
2023-05-10T12:32:13.867Z,3.17
2023-05-10T12:37:16.639Z,2.97
2023-05-10T12:42:19.251Z,3.72
2023-05-10T12:47:21.911Z,6.35
2023-05-10T12:52:25.901Z,4.57
2023-05-10T12:57:28.981Z,5.63
2023-05-10T13:02:31.698Z,4.20
2023-05-10T13:07:34.330Z,4.20
2023-05-10T13:12:37.272Z,5.10
2023-05-10T13:17:41.903Z,5.97
2023-05-10T13:22:45.925Z,4.32
2023-05-10T13:27:48.970Z,3.50
2023-05-10T13:32:51.939Z,6.78
2023-05-10T13:37:57.901Z,6.28
2023-05-10T13:43:03.277Z,3.22
2023-05-10T13:48:06.301Z,3.03
2023-05-10T13:53:08.978Z,3.55
2023-05-10T13:58:11.825Z,6.00
2023-05-10T14:03:14.522Z,5.68
2023-05-10T14:08:17.376Z,26.08
2023-05-10T14:13:19.971Z,8.77
2023-05-10T14:18:22.886Z,4.25
2023-05-10T14:23:26.013Z,4.45
2023-05-10T14:28:28.925Z,6.63
2023-05-10T14:33:31.636Z,4.65
2023-05-10T14:38:34.279Z,4.50
2023-05-10T14:43:37.783Z,8.27
2023-05-10T14:48:40.863Z,6.18
2023-05-10T14:53:43.980Z,4.85
2023-05-10T14:58:46.607Z,5.72
2023-05-10T15:03:49.442Z,6.07
2023-05-10T15:08:52.802Z,6.22
2023-05-10T15:13:55.690Z,5.53
2023-05-10T15:18:58.478Z,6.20
2023-05-10T15:24:01.522Z,8.77
2023-05-10T15:29:04.309Z,10.55
2023-05-10T15:34:07.318Z,6.03
2023-05-10T15:39:13.175Z,10.02
2023-05-10T15:44:15.896Z,6.45
2023-05-10T15:49:18.641Z,3.88
2023-05-10T15:54:21.463Z,7.63
2023-05-10T15:59:24.050Z,5.68
2023-05-10T16:04:27.254Z,7.43
2023-05-10T16:09:29.957Z,5.45
2023-05-10T16:14:32.640Z,8.57
2023-05-10T16:19:35.356Z,5.88
2023-05-10T16:24:38.035Z,5.30
2023-05-10T16:29:40.912Z,11.40
2023-05-10T16:34:43.614Z,13.18
2023-05-10T16:39:46.192Z,9.73
2023-05-10T16:44:48.833Z,13.77
2023-05-10T16:49:51.502Z,7.35
2023-05-10T16:54:57.057Z,15.63
2023-05-10T16:59:59.894Z,9.90
2023-05-10T17:05:02.873Z,13.13
2023-05-10T17:10:06.714Z,36.25
2023-05-10T17:15:10.172Z,44.13
2023-05-10T17:20:14.003Z,135.10
2023-05-10T17:25:16.969Z,228.02
2023-05-10T17:30:26.183Z,167.77
2023-05-10T17:35:31.504Z,102.38
2023-05-10T17:40:34.279Z,134.38
2023-05-10T17:45:37.160Z,107.82
2023-05-10T17:50:43.223Z,85.05
2023-05-10T17:55:46.071Z,43.60
2023-05-10T18:00:48.908Z,39.97
2023-05-10T18:05:51.912Z,61.45
2023-05-10T18:10:55.248Z,46.28
2023-05-10T18:15:57.901Z,46.88
2023-05-10T18:21:00.937Z,57.08
2023-05-10T18:26:03.730Z,48.67
2023-05-10T18:31:06.441Z,39.08
2023-05-10T18:36:09.145Z,67.68
2023-05-10T18:41:14.601Z,75.97
2023-05-10T18:46:17.347Z,48.53
2023-05-10T18:51:22.287Z,66.47
2023-05-10T18:56:25.070Z,62.95
2023-05-10T19:01:27.865Z,51.30
2023-05-10T19:06:31.449Z,44.45
2023-05-10T19:11:34.678Z,51.25
2023-05-10T19:16:37.881Z,35.13
2023-05-10T19:21:41.052Z,52.28
2023-05-10T19:26:43.760Z,50.70
2023-05-10T19:31:46.646Z,82.90
2023-05-10T19:36:49.519Z,49.30
2023-05-10T19:41:52.378Z,25.88
2023-05-10T19:46:55.483Z,26.95
2023-05-10T19:51:58.199Z,21.35
2023-05-10T19:57:00.962Z,21.95
2023-05-10T20:02:03.922Z,20.13
2023-05-10T20:07:06.650Z,25.50
2023-05-10T20:12:09.354Z,22.65
2023-05-10T20:17:12.104Z,23.33
2023-05-10T20:22:14.837Z,19.17
2023-05-10T20:27:17.790Z,21.00
2023-05-10T20:32:20.414Z,16.30
2023-05-10T20:37:23.755Z,15.85
2023-05-10T20:42:26.696Z,33.90
2023-05-10T20:47:29.857Z,18.17
2023-05-10T20:52:32.772Z,36.53
2023-05-10T20:57:36.660Z,33.38
2023-05-10T21:02:41.869Z,36.08
2023-05-10T21:07:44.632Z,23.65
2023-05-10T21:12:47.372Z,20.00
2023-05-10T21:17:50.135Z,19.15
2023-05-10T21:22:52.952Z,19.73
2023-05-10T21:27:55.572Z,20.70
2023-05-10T21:32:59.990Z,25.60
2023-05-10T21:38:02.767Z,28.42
2023-05-10T21:43:06.178Z,18.52
2023-05-10T21:48:08.896Z,15.73
2023-05-10T21:53:11.966Z,12.63
2023-05-10T21:58:14.615Z,19.88
2023-05-10T22:03:18.226Z,22.45
2023-05-10T22:08:21.069Z,15.43
2023-05-10T22:13:23.697Z,17.92
2023-05-10T22:18:26.417Z,14.75
2023-05-10T22:23:29.133Z,16.90
2023-05-10T22:28:32.039Z,18.48
2023-05-10T22:33:34.707Z,18.48
2023-05-10T22:38:37.707Z,18.20
2023-05-10T22:43:40.305Z,16.17
2023-05-10T22:48:43.849Z,17.65
2023-05-10T22:53:46.569Z,12.20
2023-05-10T22:58:50.469Z,12.75
2023-05-10T23:03:53.110Z,9.73
2023-05-10T23:08:55.824Z,15.65
2023-05-10T23:13:58.822Z,13.50
2023-05-10T23:19:01.488Z,16.42
2023-05-10T23:24:04.629Z,18.85
2023-05-10T23:29:07.375Z,11.60
2023-05-10T23:34:10.435Z,10.85
2023-05-10T23:39:13.598Z,13.60
2023-05-10T23:44:16.766Z,19.08
2023-05-10T23:49:19.635Z,12.57
2023-05-10T23:54:23.012Z,14.85
2023-05-10T23:59:25.753Z,18.17
